createdAt,value
2023-04-06T19:25:11.098Z,10.30
2023-04-06T19:27:39.152Z,10.30
2023-04-06T19:30:10.039Z,10.30
2023-04-06T19:35:07.187Z,10.20
2023-04-06T19:37:35.189Z,10.10
2023-04-06T19:40:07.401Z,10.10
2023-04-06T19:42:36.810Z,10.00
2023-04-06T19:45:05.604Z,9.90
2023-04-06T19:47:34.848Z,9.70
2023-04-06T19:50:02.747Z,9.70
2023-04-06T19:52:31.457Z,9.60
2023-04-06T19:54:59.520Z,9.50
2023-04-06T19:57:27.794Z,9.40
2023-04-06T19:59:56.948Z,10.20
2023-04-06T20:02:24.912Z,9.50
2023-04-06T20:04:52.724Z,9.50
2023-04-06T20:07:21.006Z,9.50
2023-04-06T20:09:48.876Z,9.40
2023-04-06T20:12:16.657Z,9.40
2023-04-06T20:14:44.431Z,9.50
2023-04-06T20:17:13.612Z,9.40
2023-04-06T20:19:41.405Z,9.50
2023-04-06T20:22:09.182Z,9.50
2023-04-06T20:24:36.944Z,9.60
2023-04-06T20:27:04.900Z,9.60
2023-04-06T20:29:32.673Z,10.60
2023-04-06T20:32:01.344Z,9.70
2023-04-06T20:34:32.018Z,9.70
2023-04-06T20:36:59.914Z,9.70
2023-04-06T20:39:30.992Z,9.70
2023-04-06T20:41:58.837Z,9.70
2023-04-06T20:44:26.673Z,9.70
2023-04-06T20:46:54.886Z,9.60
2023-04-06T20:51:53.247Z,9.40
2023-04-06T20:54:21.177Z,9.40
2023-04-06T20:56:49.093Z,9.40
2023-04-06T20:59:16.900Z,9.40
2023-04-06T21:01:44.985Z,9.40
2023-04-06T21:04:12.970Z,9.40
2023-04-06T21:06:41.787Z,9.40
2023-04-06T21:09:11.023Z,9.50
2023-04-06T21:11:38.769Z,9.50
2023-04-06T21:14:09.281Z,9.50
2023-04-06T21:16:37.513Z,9.50
2023-04-06T21:19:05.280Z,9.40
2023-04-06T21:21:33.048Z,9.50
2023-04-06T21:24:01.514Z,9.50
2023-04-06T21:26:30.736Z,9.40
2023-04-06T21:28:58.495Z,9.40
2023-04-06T21:31:26.373Z,9.40
2023-04-06T21:33:54.214Z,9.40
2023-04-06T21:36:22.090Z,9.50
2023-04-06T21:38:49.859Z,9.50
2023-04-06T21:41:17.625Z,9.50
2023-04-06T21:43:46.712Z,9.50
2023-04-06T21:46:14.510Z,9.50
2023-04-06T21:48:42.263Z,9.50
2023-04-06T21:51:10.051Z,9.50
2023-04-06T21:53:37.837Z,9.50
2023-04-06T21:56:05.993Z,9.50
2023-04-06T21:58:33.785Z,9.50
2023-04-06T22:01:05.195Z,9.50
2023-04-06T22:03:33.114Z,9.50
2023-04-06T22:06:04.338Z,9.50
2023-04-06T22:08:34.032Z,9.50
2023-04-06T22:11:07.686Z,9.50
2023-04-06T22:13:35.629Z,9.50
2023-04-06T22:16:05.437Z,9.50
2023-04-06T22:18:33.365Z,9.50
2023-04-06T22:21:03.270Z,9.40
2023-04-06T22:23:32.744Z,9.40
2023-04-06T22:26:00.648Z,9.40
2023-04-06T22:28:28.673Z,9.30
2023-04-06T22:30:56.438Z,9.30
2023-04-06T22:33:25.583Z,9.30
2023-04-06T22:35:53.410Z,9.30
2023-04-06T22:38:21.274Z,9.30
2023-04-06T22:40:48.999Z,9.30
2023-04-06T22:43:16.726Z,9.30
2023-04-06T22:45:44.472Z,9.30
2023-04-06T22:48:12.289Z,9.30
2023-04-06T22:50:41.459Z,9.30
2023-04-06T22:53:09.245Z,9.30
2023-04-06T22:55:39.741Z,9.30
2023-04-06T22:58:07.530Z,9.30
2023-04-06T23:00:37.425Z,9.30
2023-04-06T23:03:05.498Z,9.30
2023-04-06T23:05:33.624Z,9.20
2023-04-06T23:08:02.761Z,9.20
2023-04-06T23:10:30.563Z,9.20
2023-04-06T23:12:58.673Z,9.20
2023-04-06T23:15:26.469Z,9.20
2023-04-06T23:17:54.251Z,9.20
2023-04-06T23:20:22.216Z,9.20
2023-04-06T23:22:50.372Z,9.30
2023-04-06T23:25:19.686Z,9.30
2023-04-06T23:27:47.470Z,9.20
2023-04-06T23:30:15.686Z,9.20
2023-04-06T23:32:43.632Z,9.20
2023-04-06T23:35:11.755Z,9.20
2023-04-06T23:37:39.569Z,9.20
2023-04-06T23:40:08.777Z,9.20
2023-04-06T23:42:37.881Z,9.20
2023-04-06T23:45:06.708Z,9.20
2023-04-06T23:47:34.582Z,9.20
2023-04-06T23:50:03.006Z,9.20
2023-04-06T23:52:30.930Z,9.20
2023-04-06T23:54:58.949Z,9.20
2023-04-06T23:57:26.973Z,9.20
2023-04-06T23:59:58.768Z,9.30
